Terminal Aerodrome Forecast
Issued by NWS

Home | Current Version | Previous Version | Text Only | Print | Product List | Glossary On
Versions: 1 2 3 4 5 6 7 8 9 10 11 12 13 14 15 16 17 18 19
384
FTUS43 KOAX 161720
TAFSNY
TAF
KSNY 161720Z 1618/1718 34017G28KT P6SM BKN060
     FM170000 33010KT P6SM SKC
     FM170600 28008KT P6SM SKC=

USA.gov is the U.S. government's official web portal to all federal, state and local government web resources and services.